sensor_id;sensor_type;location;lat;lon;timestamp;P1;durP1;ratioP1;P2;durP2;ratioP2
56680;SDS011;42558;52.388;13.390;2023-04-24T00:01:03;17.10;;;10.83;;
56680;SDS011;42558;52.388;13.390;2023-04-24T00:03:31;15.58;;;11.21;;
56680;SDS011;42558;52.388;13.390;2023-04-24T00:05:59;15.20;;;10.07;;
56680;SDS011;42558;52.388;13.390;2023-04-24T00:08:28;16.15;;;11.40;;
56680;SDS011;42558;52.388;13.390;2023-04-24T00:10:56;15.01;;;10.26;;
56680;SDS011;42558;52.388;13.390;2023-04-24T00:13:25;15.77;;;10.83;;
56680;SDS011;42558;52.388;13.390;2023-04-24T00:15:54;15.20;;;10.83;;
56680;SDS011;42558;52.388;13.390;2023-04-24T00:18:25;15.20;;;10.45;;
56680;SDS011;42558;52.388;13.390;2023-04-24T00:20:53;14.25;;;9.88;;
56680;SDS011;42558;52.388;13.390;2023-04-24T00:23:21;15.39;;;12.16;;
56680;SDS011;42558;52.388;13.390;2023-04-24T00:25:50;15.01;;;10.83;;
56680;SDS011;42558;52.388;13.390;2023-04-24T00:28:19;16.53;;;10.64;;
56680;SDS011;42558;52.388;13.390;2023-04-24T00:30:47;13.87;;;10.07;;
56680;SDS011;42558;52.388;13.390;2023-04-24T00:33:15;14.82;;;11.97;;
56680;SDS011;42558;52.388;13.390;2023-04-24T00:35:44;13.49;;;10.83;;
56680;SDS011;42558;52.388;13.390;2023-04-24T00:38:12;14.44;;;10.07;;
56680;SDS011;42558;52.388;13.390;2023-04-24T00:40:41;14.82;;;10.83;;
56680;SDS011;42558;52.388;13.390;2023-04-24T00:43:09;15.58;;;11.21;;
56680;SDS011;42558;52.388;13.390;2023-04-24T00:45:38;16.53;;;10.07;;
56680;SDS011;42558;52.388;13.390;2023-04-24T00:48:06;15.20;;;11.78;;
56680;SDS011;42558;52.388;13.390;2023-04-24T00:50:38;16.72;;;12.35;;
56680;SDS011;42558;52.388;13.390;2023-04-24T00:53:06;16.91;;;11.59;;
56680;SDS011;42558;52.388;13.390;2023-04-24T00:55:35;17.29;;;12.16;;
56680;SDS011;42558;52.388;13.390;2023-04-24T00:58:07;16.53;;;12.16;;
56680;SDS011;42558;52.388;13.390;2023-04-24T01:00:37;15.01;;;12.35;;
56680;SDS011;42558;52.388;13.390;2023-04-24T01:03:08;17.10;;;11.40;;
56680;SDS011;42558;52.388;13.390;2023-04-24T01:05:38;15.39;;;11.78;;
56680;SDS011;42558;52.388;13.390;2023-04-24T01:08:08;15.20;;;11.59;;
56680;SDS011;42558;52.388;13.390;2023-04-24T01:10:38;14.25;;;10.83;;
56680;SDS011;42558;52.388;13.390;2023-04-24T01:13:10;15.58;;;10.83;;
56680;SDS011;42558;52.388;13.390;2023-04-24T01:15:40;14.82;;;12.16;;
56680;SDS011;42558;52.388;13.390;2023-04-24T01:18:10;15.39;;;12.16;;
56680;SDS011;42558;52.388;13.390;2023-04-24T01:20:41;18.43;;;11.21;;
56680;SDS011;42558;52.388;13.390;2023-04-24T01:23:13;14.25;;;10.64;;
56680;SDS011;42558;52.388;13.390;2023-04-24T01:25:44;14.63;;;10.64;;
56680;SDS011;42558;52.388;13.390;2023-04-24T01:28:14;15.01;;;10.83;;
56680;SDS011;42558;52.388;13.390;2023-04-24T01:30:45;13.68;;;10.26;;
56680;SDS011;42558;52.388;13.390;2023-04-24T01:33:16;14.44;;;10.83;;
56680;SDS011;42558;52.388;13.390;2023-04-24T01:35:47;14.06;;;10.07;;
56680;SDS011;42558;52.388;13.390;2023-04-24T01:38:17;14.44;;;10.45;;
56680;SDS011;42558;52.388;13.390;2023-04-24T01:40:47;15.58;;;11.40;;
56680;SDS011;42558;52.388;13.390;2023-04-24T01:43:19;15.39;;;10.26;;
56680;SDS011;42558;52.388;13.390;2023-04-24T01:45:49;14.06;;;10.64;;
56680;SDS011;42558;52.388;13.390;2023-04-24T01:48:19;16.15;;;11.21;;
56680;SDS011;42558;52.388;13.390;2023-04-24T01:50:50;14.06;;;10.45;;
56680;SDS011;42558;52.388;13.390;2023-04-24T01:53:20;14.44;;;11.40;;
56680;SDS011;42558;52.388;13.390;2023-04-24T01:55:50;16.91;;;10.45;;
56680;SDS011;42558;52.388;13.390;2023-04-24T01:58:19;13.49;;;10.64;;
56680;SDS011;42558;52.388;13.390;2023-04-24T02:00:50;15.20;;;11.02;;
56680;SDS011;42558;52.388;13.390;2023-04-24T02:03:20;13.11;;;10.07;;
56680;SDS011;42558;52.388;13.390;2023-04-24T02:05:50;17.10;;;11.97;;
56680;SDS011;42558;52.388;13.390;2023-04-24T02:08:20;17.67;;;11.02;;
56680;SDS011;42558;52.388;13.390;2023-04-24T02:10:50;15.20;;;10.83;;
56680;SDS011;42558;52.388;13.390;2023-04-24T02:13:20;17.48;;;11.97;;
56680;SDS011;42558;52.388;13.390;2023-04-24T02:15:50;17.86;;;11.02;;
56680;SDS011;42558;52.388;13.390;2023-04-24T02:18:20;18.24;;;11.02;;
56680;SDS011;42558;52.388;13.390;2023-04-24T02:20:50;16.15;;;11.97;;
56680;SDS011;42558;52.388;13.390;2023-04-24T02:23:20;15.20;;;11.21;;
56680;SDS011;42558;52.388;13.390;2023-04-24T02:25:49;15.39;;;11.78;;
56680;SDS011;42558;52.388;13.390;2023-04-24T02:28:19;16.91;;;12.54;;
56680;SDS011;42558;52.388;13.390;2023-04-24T02:30:50;15.77;;;11.59;;
56680;SDS011;42558;52.388;13.390;2023-04-24T02:33:20;16.34;;;11.78;;
56680;SDS011;42558;52.388;13.390;2023-04-24T02:35:50;19.19;;;12.54;;
56680;SDS011;42558;52.388;13.390;2023-04-24T02:38:20;17.67;;;13.11;;
56680;SDS011;42558;52.388;13.390;2023-04-24T02:40:50;16.72;;;12.73;;
56680;SDS011;42558;52.388;13.390;2023-04-24T02:43:20;17.29;;;12.92;;
56680;SDS011;42558;52.388;13.390;2023-04-24T02:45:49;16.34;;;12.73;;
56680;SDS011;42558;52.388;13.390;2023-04-24T02:48:19;19.00;;;13.87;;
56680;SDS011;42558;52.388;13.390;2023-04-24T02:50:50;19.57;;;12.54;;
56680;SDS011;42558;52.388;13.390;2023-04-24T02:53:20;17.48;;;12.73;;
56680;SDS011;42558;52.388;13.390;2023-04-24T02:55:50;18.43;;;12.16;;
56680;SDS011;42558;52.388;13.390;2023-04-24T02:58:20;16.15;;;12.54;;
56680;SDS011;42558;52.388;13.390;2023-04-24T03:00:48;16.34;;;12.16;;
56680;SDS011;42558;52.388;13.390;2023-04-24T03:03:23;15.39;;;11.59;;
56680;SDS011;42558;52.388;13.390;2023-04-24T03:05:54;15.77;;;11.40;;
56680;SDS011;42558;52.388;13.390;2023-04-24T03:08:24;15.58;;;11.78;;
56680;SDS011;42558;52.388;13.390;2023-04-24T03:10:54;15.39;;;11.97;;
56680;SDS011;42558;52.388;13.390;2023-04-24T03:13:24;16.91;;;12.16;;
56680;SDS011;42558;52.388;13.390;2023-04-24T03:15:54;19.95;;;13.30;;
56680;SDS011;42558;52.388;13.390;2023-04-24T03:18:24;16.15;;;11.78;;
56680;SDS011;42558;52.388;13.390;2023-04-24T03:20:54;17.67;;;12.16;;
56680;SDS011;42558;52.388;13.390;2023-04-24T03:23:24;16.91;;;11.40;;
56680;SDS011;42558;52.388;13.390;2023-04-24T03:25:54;19.00;;;13.30;;
56680;SDS011;42558;52.388;13.390;2023-04-24T03:28:24;15.39;;;11.59;;
56680;SDS011;42558;52.388;13.390;2023-04-24T03:30:54;18.62;;;12.54;;
56680;SDS011;42558;52.388;13.390;2023-04-24T03:33:24;16.91;;;12.16;;
56680;SDS011;42558;52.388;13.390;2023-04-24T03:35:54;18.24;;;12.92;;
56680;SDS011;42558;52.388;13.390;2023-04-24T03:38:24;15.96;;;12.16;;
56680;SDS011;42558;52.388;13.390;2023-04-24T03:40:54;16.91;;;12.54;;
56680;SDS011;42558;52.388;13.390;2023-04-24T03:43:24;17.48;;;12.16;;
56680;SDS011;42558;52.388;13.390;2023-04-24T03:45:54;13.87;;;11.78;;
56680;SDS011;42558;52.388;13.390;2023-04-24T03:48:24;17.86;;;11.21;;
56680;SDS011;42558;52.388;13.390;2023-04-24T03:50:54;16.72;;;12.35;;
56680;SDS011;42558;52.388;13.390;2023-04-24T03:53:24;18.05;;;12.35;;
56680;SDS011;42558;52.388;13.390;2023-04-24T03:55:54;17.67;;;12.35;;
56680;SDS011;42558;52.388;13.390;2023-04-24T03:58:24;16.34;;;11.97;;
56680;SDS011;42558;52.388;13.390;2023-04-24T04:00:54;15.77;;;11.97;;
56680;SDS011;42558;52.388;13.390;2023-04-24T04:03:25;17.48;;;13.49;;
56680;SDS011;42558;52.388;13.390;2023-04-24T04:05:54;17.86;;;12.35;;
56680;SDS011;42558;52.388;13.390;2023-04-24T04:08:22;15.96;;;12.73;;
56680;SDS011;42558;52.388;13.390;2023-04-24T04:10:51;15.20;;;11.59;;
56680;SDS011;42558;52.388;13.390;2023-04-24T04:13:19;16.15;;;12.54;;
56680;SDS011;42558;52.388;13.390;2023-04-24T04:15:47;14.25;;;10.64;;
56680;SDS011;42558;52.388;13.390;2023-04-24T04:18:16;15.96;;;11.02;;
56680;SDS011;42558;52.388;13.390;2023-04-24T04:20:44;14.25;;;9.88;;
56680;SDS011;42558;52.388;13.390;2023-04-24T04:23:13;16.91;;;11.21;;
56680;SDS011;42558;52.388;13.390;2023-04-24T04:25:41;15.39;;;10.07;;
56680;SDS011;42558;52.388;13.390;2023-04-24T04:28:10;13.68;;;9.50;;
56680;SDS011;42558;52.388;13.390;2023-04-24T04:30:38;14.63;;;9.69;;
56680;SDS011;42558;52.388;13.390;2023-04-24T04:33:06;15.39;;;10.07;;
56680;SDS011;42558;52.388;13.390;2023-04-24T04:35:35;13.87;;;8.55;;
56680;SDS011;42558;52.388;13.390;2023-04-24T04:38:03;14.44;;;8.93;;
56680;SDS011;42558;52.388;13.390;2023-04-24T04:40:32;15.96;;;9.12;;
56680;SDS011;42558;52.388;13.390;2023-04-24T04:43:00;14.63;;;8.36;;
56680;SDS011;42558;52.388;13.390;2023-04-24T04:45:29;14.63;;;8.55;;
56680;SDS011;42558;52.388;13.390;2023-04-24T04:47:57;11.97;;;8.93;;
56680;SDS011;42558;52.388;13.390;2023-04-24T04:50:26;12.35;;;8.36;;
56680;SDS011;42558;52.388;13.390;2023-04-24T04:52:54;11.21;;;7.79;;
56680;SDS011;42558;52.388;13.390;2023-04-24T04:55:23;13.11;;;8.36;;
56680;SDS011;42558;52.388;13.390;2023-04-24T04:57:52;11.59;;;7.79;;
56680;SDS011;42558;52.388;13.390;2023-04-24T05:00:20;10.64;;;7.41;;
56680;SDS011;42558;52.388;13.390;2023-04-24T05:02:49;12.16;;;7.41;;
56680;SDS011;42558;52.388;13.390;2023-04-24T05:05:17;12.73;;;7.60;;
56680;SDS011;42558;52.388;13.390;2023-04-24T05:07:45;12.16;;;7.60;;
56680;SDS011;42558;52.388;13.390;2023-04-24T05:10:14;11.21;;;7.41;;
56680;SDS011;42558;52.388;13.390;2023-04-24T05:12:42;10.26;;;6.65;;
56680;SDS011;42558;52.388;13.390;2023-04-24T05:15:14;11.40;;;7.03;;
56680;SDS011;42558;52.388;13.390;2023-04-24T05:17:42;11.78;;;6.84;;
56680;SDS011;42558;52.388;13.390;2023-04-24T05:20:11;12.73;;;7.03;;
56680;SDS011;42558;52.388;13.390;2023-04-24T05:22:39;10.26;;;6.84;;
56680;SDS011;42558;52.388;13.390;2023-04-24T05:25:07;13.49;;;6.46;;
56680;SDS011;42558;52.388;13.390;2023-04-24T05:27:36;11.21;;;6.84;;
56680;SDS011;42558;52.388;13.390;2023-04-24T05:30:05;9.69;;;6.46;;
56680;SDS011;42558;52.388;13.390;2023-04-24T05:32:33;10.07;;;6.46;;
56680;SDS011;42558;52.388;13.390;2023-04-24T05:35:01;9.50;;;6.27;;
56680;SDS011;42558;52.388;13.390;2023-04-24T05:37:29;11.40;;;6.65;;
56680;SDS011;42558;52.388;13.390;2023-04-24T05:39:58;9.69;;;6.08;;
56680;SDS011;42558;52.388;13.390;2023-04-24T05:42:26;11.21;;;5.70;;
56680;SDS011;42558;52.388;13.390;2023-04-24T05:44:55;10.45;;;5.89;;
56680;SDS011;42558;52.388;13.390;2023-04-24T05:47:23;9.69;;;5.51;;
56680;SDS011;42558;52.388;13.390;2023-04-24T05:49:52;14.44;;;5.89;;
56680;SDS011;42558;52.388;13.390;2023-04-24T05:52:20;9.69;;;5.32;;
56680;SDS011;42558;52.388;13.390;2023-04-24T05:54:49;9.69;;;5.13;;
56680;SDS011;42558;52.388;13.390;2023-04-24T05:57:17;10.45;;;4.56;;
56680;SDS011;42558;52.388;13.390;2023-04-24T05:59:45;8.36;;;3.99;;
56680;SDS011;42558;52.388;13.390;2023-04-24T06:02:14;10.07;;;5.13;;
56680;SDS011;42558;52.388;13.390;2023-04-24T06:04:42;7.60;;;4.18;;
56680;SDS011;42558;52.388;13.390;2023-04-24T06:07:11;11.21;;;4.56;;
56680;SDS011;42558;52.388;13.390;2023-04-24T06:09:39;8.74;;;4.37;;
56680;SDS011;42558;52.388;13.390;2023-04-24T06:12:11;7.22;;;4.18;;
56680;SDS011;42558;52.388;13.390;2023-04-24T06:14:41;7.98;;;3.61;;
56680;SDS011;42558;52.388;13.390;2023-04-24T06:17:11;6.65;;;3.61;;
56680;SDS011;42558;52.388;13.390;2023-04-24T06:19:41;6.27;;;2.66;;
56680;SDS011;42558;52.388;13.390;2023-04-24T06:22:12;7.60;;;3.80;;
56680;SDS011;42558;52.388;13.390;2023-04-24T06:24:41;6.46;;;3.23;;
56680;SDS011;42558;52.388;13.390;2023-04-24T06:27:11;9.50;;;3.80;;
56680;SDS011;42558;52.388;13.390;2023-04-24T06:29:42;8.93;;;3.42;;
56680;SDS011;42558;52.388;13.390;2023-04-24T06:32:12;7.98;;;3.80;;
56680;SDS011;42558;52.388;13.390;2023-04-24T06:34:42;6.84;;;3.23;;
56680;SDS011;42558;52.388;13.390;2023-04-24T06:37:12;5.51;;;2.66;;
56680;SDS011;42558;52.388;13.390;2023-04-24T06:39:42;6.27;;;2.85;;
56680;SDS011;42558;52.388;13.390;2023-04-24T06:42:13;5.89;;;2.85;;
56680;SDS011;42558;52.388;13.390;2023-04-24T06:44:46;7.41;;;3.04;;
56680;SDS011;42558;52.388;13.390;2023-04-24T06:47:13;6.65;;;2.85;;
56680;SDS011;42558;52.388;13.390;2023-04-24T06:49:43;6.46;;;2.28;;
56680;SDS011;42558;52.388;13.390;2023-04-24T06:52:14;6.46;;;2.66;;
56680;SDS011;42558;52.388;13.390;2023-04-24T06:54:44;6.84;;;2.66;;
56680;SDS011;42558;52.388;13.390;2023-04-24T06:57:14;6.65;;;2.66;;
56680;SDS011;42558;52.388;13.390;2023-04-24T06:59:45;7.79;;;2.66;;
56680;SDS011;42558;52.388;13.390;2023-04-24T07:02:15;5.51;;;2.47;;
56680;SDS011;42558;52.388;13.390;2023-04-24T07:04:45;5.51;;;2.66;;
56680;SDS011;42558;52.388;13.390;2023-04-24T07:07:16;5.51;;;2.09;;
56680;SDS011;42558;52.388;13.390;2023-04-24T07:09:46;6.08;;;2.66;;
56680;SDS011;42558;52.388;13.390;2023-04-24T07:12:16;5.89;;;2.47;;
56680;SDS011;42558;52.388;13.390;2023-04-24T07:14:46;6.08;;;2.66;;
56680;SDS011;42558;52.388;13.390;2023-04-24T07:17:16;6.27;;;2.66;;
56680;SDS011;42558;52.388;13.390;2023-04-24T07:19:46;5.70;;;2.47;;
56680;SDS011;42558;52.388;13.390;2023-04-24T07:22:17;5.13;;;1.90;;
56680;SDS011;42558;52.388;13.390;2023-04-24T07:24:46;5.32;;;2.28;;
56680;SDS011;42558;52.388;13.390;2023-04-24T07:27:16;6.46;;;2.66;;
56680;SDS011;42558;52.388;13.390;2023-04-24T07:29:46;7.60;;;2.47;;
56680;SDS011;42558;52.388;13.390;2023-04-24T07:32:16;6.84;;;2.66;;
56680;SDS011;42558;52.388;13.390;2023-04-24T07:34:46;5.89;;;2.28;;
56680;SDS011;42558;52.388;13.390;2023-04-24T07:37:16;6.08;;;2.28;;
56680;SDS011;42558;52.388;13.390;2023-04-24T07:39:46;5.32;;;2.09;;
56680;SDS011;42558;52.388;13.390;2023-04-24T07:42:16;5.70;;;2.28;;
56680;SDS011;42558;52.388;13.390;2023-04-24T07:44:46;5.32;;;2.28;;
56680;SDS011;42558;52.388;13.390;2023-04-24T07:47:16;5.70;;;2.09;;
56680;SDS011;42558;52.388;13.390;2023-04-24T07:49:46;4.94;;;1.90;;
56680;SDS011;42558;52.388;13.390;2023-04-24T07:52:16;6.27;;;2.28;;
56680;SDS011;42558;52.388;13.390;2023-04-24T07:54:46;6.46;;;2.47;;
56680;SDS011;42558;52.388;13.390;2023-04-24T07:57:16;5.89;;;2.09;;
56680;SDS011;42558;52.388;13.390;2023-04-24T07:59:46;5.32;;;1.90;;
56680;SDS011;42558;52.388;13.390;2023-04-24T08:02:16;5.51;;;2.47;;
56680;SDS011;42558;52.388;13.390;2023-04-24T08:04:46;5.51;;;1.90;;
56680;SDS011;42558;52.388;13.390;2023-04-24T08:07:16;4.75;;;1.71;;
56680;SDS011;42558;52.388;13.390;2023-04-24T08:09:46;4.94;;;1.71;;
56680;SDS011;42558;52.388;13.390;2023-04-24T08:12:16;6.65;;;1.90;;
56680;SDS011;42558;52.388;13.390;2023-04-24T08:14:46;4.75;;;1.71;;
56680;SDS011;42558;52.388;13.390;2023-04-24T08:17:17;6.08;;;1.33;;
56680;SDS011;42558;52.388;13.390;2023-04-24T08:19:46;7.03;;;1.71;;
56680;SDS011;42558;52.388;13.390;2023-04-24T08:22:20;5.13;;;1.71;;
56680;SDS011;42558;52.388;13.390;2023-04-24T08:24:48;5.32;;;1.90;;
56680;SDS011;42558;52.388;13.390;2023-04-24T08:27:16;4.94;;;1.90;;
56680;SDS011;42558;52.388;13.390;2023-04-24T08:29:45;7.41;;;1.71;;
56680;SDS011;42558;52.388;13.390;2023-04-24T08:32:13;6.08;;;1.52;;
56680;SDS011;42558;52.388;13.390;2023-04-24T08:34:42;6.27;;;1.71;;
56680;SDS011;42558;52.388;13.390;2023-04-24T08:37:10;4.94;;;1.52;;
56680;SDS011;42558;52.388;13.390;2023-04-24T08:39:39;5.32;;;2.28;;
56680;SDS011;42558;52.388;13.390;2023-04-24T08:42:09;5.89;;;2.28;;
56680;SDS011;42558;52.388;13.390;2023-04-24T08:44:46;5.51;;;2.09;;
56680;SDS011;42558;52.388;13.390;2023-04-24T08:47:17;4.37;;;1.71;;
56680;SDS011;42558;52.388;13.390;2023-04-24T08:49:50;5.89;;;2.09;;
56680;SDS011;42558;52.388;13.390;2023-04-24T08:52:21;4.94;;;2.28;;
56680;SDS011;42558;52.388;13.390;2023-04-24T08:54:52;7.03;;;1.71;;
56680;SDS011;42558;52.388;13.390;2023-04-24T08:57:24;5.13;;;1.90;;
56680;SDS011;42558;52.388;13.390;2023-04-24T08:59:56;5.32;;;2.47;;
56680;SDS011;42558;52.388;13.390;2023-04-24T09:02:28;5.32;;;1.90;;
56680;SDS011;42558;52.388;13.390;2023-04-24T09:04:59;6.65;;;2.28;;
56680;SDS011;42558;52.388;13.390;2023-04-24T09:07:34;4.75;;;1.71;;
56680;SDS011;42558;52.388;13.390;2023-04-24T09:10:06;5.70;;;2.28;;
56680;SDS011;42558;52.388;13.390;2023-04-24T09:12:37;4.94;;;2.09;;
56680;SDS011;42558;52.388;13.390;2023-04-24T09:15:07;6.27;;;2.66;;
56680;SDS011;42558;52.388;13.390;2023-04-24T09:17:38;6.08;;;1.90;;
56680;SDS011;42558;52.388;13.390;2023-04-24T09:20:08;7.03;;;1.90;;
56680;SDS011;42558;52.388;13.390;2023-04-24T09:22:38;8.74;;;2.28;;
56680;SDS011;42558;52.388;13.390;2023-04-24T09:25:09;7.41;;;2.28;;
56680;SDS011;42558;52.388;13.390;2023-04-24T09:27:43;6.08;;;2.28;;
56680;SDS011;42558;52.388;13.390;2023-04-24T09:30:21;4.75;;;1.71;;
56680;SDS011;42558;52.388;13.390;2023-04-24T09:35:50;4.75;;;1.90;;
56680;SDS011;42558;52.388;13.390;2023-04-24T09:38:37;5.70;;;1.90;;
56680;SDS011;42558;52.388;13.390;2023-04-24T09:41:13;5.51;;;1.71;;
56680;SDS011;42558;52.388;13.390;2023-04-24T09:43:43;5.70;;;2.09;;
56680;SDS011;42558;52.388;13.390;2023-04-24T09:46:13;5.13;;;1.90;;
56680;SDS011;42558;52.388;13.390;2023-04-24T09:48:43;4.56;;;1.52;;
56680;SDS011;42558;52.388;13.390;2023-04-24T09:51:13;6.08;;;1.52;;
56680;SDS011;42558;52.388;13.390;2023-04-24T09:53:47;5.89;;;1.90;;
56680;SDS011;42558;52.388;13.390;2023-04-24T09:56:25;4.94;;;1.71;;
56680;SDS011;42558;52.388;13.390;2023-04-24T09:59:04;5.32;;;1.90;;
56680;SDS011;42558;52.388;13.390;2023-04-24T10:01:36;8.17;;;2.09;;
56680;SDS011;42558;52.388;13.390;2023-04-24T10:06:55;4.94;;;2.09;;
56680;SDS011;42558;52.388;13.390;2023-04-24T10:09:26;6.84;;;1.90;;
56680;SDS011;42558;52.388;13.390;2023-04-24T10:11:54;6.46;;;1.90;;
56680;SDS011;42558;52.388;13.390;2023-04-24T10:14:24;4.75;;;1.71;;
56680;SDS011;42558;52.388;13.390;2023-04-24T10:16:55;4.56;;;1.71;;
56680;SDS011;42558;52.388;13.390;2023-04-24T10:19:27;6.84;;;1.90;;
56680;SDS011;42558;52.388;13.390;2023-04-24T10:21:59;6.08;;;2.28;;
56680;SDS011;42558;52.388;13.390;2023-04-24T10:24:31;5.32;;;2.28;;
56680;SDS011;42558;52.388;13.390;2023-04-24T10:27:03;6.27;;;2.66;;
56680;SDS011;42558;52.388;13.390;2023-04-24T10:29:35;5.70;;;2.09;;
56680;SDS011;42558;52.388;13.390;2023-04-24T10:32:07;5.32;;;2.09;;
56680;SDS011;42558;52.388;13.390;2023-04-24T10:34:39;5.13;;;2.28;;
56680;SDS011;42558;52.388;13.390;2023-04-24T10:37:10;5.32;;;1.90;;
56680;SDS011;42558;52.388;13.390;2023-04-24T10:39:40;5.32;;;2.09;;
56680;SDS011;42558;52.388;13.390;2023-04-24T10:42:16;7.22;;;2.28;;
56680;SDS011;42558;52.388;13.390;2023-04-24T10:44:49;5.70;;;2.47;;
56680;SDS011;42558;52.388;13.390;2023-04-24T10:47:19;7.41;;;2.47;;
56680;SDS011;42558;52.388;13.390;2023-04-24T10:49:50;5.70;;;2.47;;
56680;SDS011;42558;52.388;13.390;2023-04-24T10:52:21;6.27;;;2.28;;
56680;SDS011;42558;52.388;13.390;2023-04-24T10:54:49;5.89;;;2.28;;
56680;SDS011;42558;52.388;13.390;2023-04-24T11:00:10;5.51;;;2.47;;
56680;SDS011;42558;52.388;13.390;2023-04-24T11:02:52;6.27;;;2.66;;
56680;SDS011;42558;52.388;13.390;2023-04-24T11:05:49;6.27;;;2.28;;
56680;SDS011;42558;52.388;13.390;2023-04-24T11:11:17;6.27;;;2.28;;
56680;SDS011;42558;52.388;13.390;2023-04-24T11:16:28;5.13;;;2.28;;
56680;SDS011;42558;52.388;13.390;2023-04-24T11:21:59;8.36;;;3.42;;
56680;SDS011;42558;52.388;13.390;2023-04-24T11:27:18;9.88;;;3.61;;
56680;SDS011;42558;52.388;13.390;2023-04-24T11:32:28;6.46;;;2.85;;
56680;SDS011;42558;52.388;13.390;2023-04-24T11:34:59;6.84;;;3.23;;
56680;SDS011;42558;52.388;13.390;2023-04-24T11:37:40;14.25;;;3.23;;
56680;SDS011;42558;52.388;13.390;2023-04-24T11:40:13;8.17;;;2.66;;
56680;SDS011;42558;52.388;13.390;2023-04-24T11:42:47;21.66;;;4.18;;
56680;SDS011;42558;52.388;13.390;2023-04-24T11:45:25;6.46;;;2.85;;
56680;SDS011;42558;52.388;13.390;2023-04-24T11:47:58;6.65;;;2.47;;
56680;SDS011;42558;52.388;13.390;2023-04-24T11:50:28;5.13;;;1.90;;
56680;SDS011;42558;52.388;13.390;2023-04-24T11:52:59;6.08;;;2.47;;
56680;SDS011;42558;52.388;13.390;2023-04-24T11:55:30;6.27;;;2.85;;
56680;SDS011;42558;52.388;13.390;2023-04-24T11:57:59;5.13;;;3.04;;
56680;SDS011;42558;52.388;13.390;2023-04-24T12:00:31;7.41;;;2.28;;
56680;SDS011;42558;52.388;13.390;2023-04-24T12:03:06;6.08;;;2.66;;
56680;SDS011;42558;52.388;13.390;2023-04-24T12:05:35;6.27;;;2.66;;
56680;SDS011;42558;52.388;13.390;2023-04-24T12:08:03;7.60;;;2.66;;
56680;SDS011;42558;52.388;13.390;2023-04-24T12:10:34;6.65;;;2.47;;
56680;SDS011;42558;52.388;13.390;2023-04-24T12:13:04;7.79;;;2.66;;
56680;SDS011;42558;52.388;13.390;2023-04-24T12:15:32;6.65;;;2.66;;
56680;SDS011;42558;52.388;13.390;2023-04-24T12:18:01;4.94;;;2.09;;
56680;SDS011;42558;52.388;13.390;2023-04-24T12:20:31;5.32;;;2.28;;
56680;SDS011;42558;52.388;13.390;2023-04-24T12:23:01;5.70;;;2.47;;
56680;SDS011;42558;52.388;13.390;2023-04-24T12:25:31;6.65;;;2.09;;
56680;SDS011;42558;52.388;13.390;2023-04-24T12:30:37;5.13;;;1.90;;
56680;SDS011;42558;52.388;13.390;2023-04-24T12:33:07;7.22;;;1.71;;
56680;SDS011;42558;52.388;13.390;2023-04-24T12:35:40;5.13;;;2.09;;
56680;SDS011;42558;52.388;13.390;2023-04-24T12:38:13;7.03;;;2.28;;
56680;SDS011;42558;52.388;13.390;2023-04-24T12:40:44;6.27;;;1.90;;
56680;SDS011;42558;52.388;13.390;2023-04-24T12:43:19;5.89;;;2.09;;
56680;SDS011;42558;52.388;13.390;2023-04-24T12:45:49;5.32;;;1.52;;
56680;SDS011;42558;52.388;13.390;2023-04-24T12:48:17;5.70;;;1.52;;
56680;SDS011;42558;52.388;13.390;2023-04-24T12:50:47;10.83;;;2.09;;
56680;SDS011;42558;52.388;13.390;2023-04-24T12:53:16;6.46;;;1.71;;
56680;SDS011;42558;52.388;13.390;2023-04-24T12:55:46;4.94;;;1.71;;
56680;SDS011;42558;52.388;13.390;2023-04-24T12:58:21;4.56;;;1.71;;
56680;SDS011;42558;52.388;13.390;2023-04-24T13:00:51;7.60;;;1.90;;
56680;SDS011;42558;52.388;13.390;2023-04-24T13:03:21;4.75;;;1.71;;
56680;SDS011;42558;52.388;13.390;2023-04-24T13:05:51;4.75;;;1.71;;
56680;SDS011;42558;52.388;13.390;2023-04-24T13:08:21;5.13;;;2.28;;
56680;SDS011;42558;52.388;13.390;2023-04-24T13:10:51;5.32;;;2.09;;
56680;SDS011;42558;52.388;13.390;2023-04-24T13:13:22;6.08;;;2.09;;
56680;SDS011;42558;52.388;13.390;2023-04-24T13:15:52;6.65;;;2.09;;
56680;SDS011;42558;52.388;13.390;2023-04-24T13:18:22;4.94;;;1.90;;
56680;SDS011;42558;52.388;13.390;2023-04-24T13:20:52;4.56;;;1.90;;
56680;SDS011;42558;52.388;13.390;2023-04-24T13:23:22;8.74;;;1.90;;
56680;SDS011;42558;52.388;13.390;2023-04-24T13:25:52;4.37;;;1.90;;
56680;SDS011;42558;52.388;13.390;2023-04-24T13:28:24;5.51;;;1.71;;
56680;SDS011;42558;52.388;13.390;2023-04-24T13:30:54;6.08;;;2.09;;
56680;SDS011;42558;52.388;13.390;2023-04-24T13:33:24;6.27;;;1.90;;
56680;SDS011;42558;52.388;13.390;2023-04-24T13:35:54;5.13;;;2.28;;
56680;SDS011;42558;52.388;13.390;2023-04-24T13:38:24;5.51;;;1.90;;
56680;SDS011;42558;52.388;13.390;2023-04-24T13:40:54;5.32;;;2.47;;
56680;SDS011;42558;52.388;13.390;2023-04-24T13:43:24;5.51;;;2.28;;
56680;SDS011;42558;52.388;13.390;2023-04-24T13:45:54;6.08;;;2.28;;
56680;SDS011;42558;52.388;13.390;2023-04-24T13:48:24;5.32;;;2.28;;
56680;SDS011;42558;52.388;13.390;2023-04-24T13:50:53;6.27;;;2.09;;
56680;SDS011;42558;52.388;13.390;2023-04-24T13:53:23;4.94;;;1.90;;
56680;SDS011;42558;52.388;13.390;2023-04-24T13:55:54;5.70;;;2.09;;
56680;SDS011;42558;52.388;13.390;2023-04-24T13:58:24;8.17;;;2.09;;
56680;SDS011;42558;52.388;13.390;2023-04-24T14:00:55;5.70;;;1.71;;
56680;SDS011;42558;52.388;13.390;2023-04-24T14:03:24;5.89;;;2.09;;
56680;SDS011;42558;52.388;13.390;2023-04-24T14:05:53;12.35;;;3.61;;
56680;SDS011;42558;52.388;13.390;2023-04-24T14:08:21;5.32;;;2.47;;
56680;SDS011;42558;52.388;13.390;2023-04-24T14:10:50;7.03;;;2.28;;
56680;SDS011;42558;52.388;13.390;2023-04-24T14:13:18;5.13;;;2.28;;
56680;SDS011;42558;52.388;13.390;2023-04-24T14:15:46;5.32;;;2.28;;
56680;SDS011;42558;52.388;13.390;2023-04-24T14:18:15;5.70;;;2.09;;
56680;SDS011;42558;52.388;13.390;2023-04-24T14:20:43;4.75;;;1.71;;
56680;SDS011;42558;52.388;13.390;2023-04-24T14:23:12;5.13;;;2.28;;
56680;SDS011;42558;52.388;13.390;2023-04-24T14:25:40;6.65;;;2.09;;
56680;SDS011;42558;52.388;13.390;2023-04-24T14:28:08;5.51;;;2.28;;
56680;SDS011;42558;52.388;13.390;2023-04-24T14:30:37;4.94;;;2.28;;
56680;SDS011;42558;52.388;13.390;2023-04-24T14:33:05;5.51;;;3.04;;
56680;SDS011;42558;52.388;13.390;2023-04-24T14:35:35;6.65;;;2.85;;
56680;SDS011;42558;52.388;13.390;2023-04-24T14:38:05;5.51;;;2.28;;
56680;SDS011;42558;52.388;13.390;2023-04-24T14:40:34;6.08;;;2.47;;
56680;SDS011;42558;52.388;13.390;2023-04-24T14:43:24;5.32;;;2.47;;
56680;SDS011;42558;52.388;13.390;2023-04-24T14:45:53;5.51;;;2.28;;
56680;SDS011;42558;52.388;13.390;2023-04-24T14:48:24;6.65;;;2.47;;
56680;SDS011;42558;52.388;13.390;2023-04-24T14:50:54;5.13;;;2.28;;
56680;SDS011;42558;52.388;13.390;2023-04-24T14:53:24;6.65;;;2.09;;
56680;SDS011;42558;52.388;13.390;2023-04-24T14:55:54;7.41;;;1.90;;
56680;SDS011;42558;52.388;13.390;2023-04-24T14:58:24;5.13;;;1.90;;
56680;SDS011;42558;52.388;13.390;2023-04-24T15:00:54;5.51;;;2.09;;
56680;SDS011;42558;52.388;13.390;2023-04-24T15:03:24;6.84;;;2.47;;
56680;SDS011;42558;52.388;13.390;2023-04-24T15:05:56;6.27;;;2.85;;
56680;SDS011;42558;52.388;13.390;2023-04-24T15:08:26;6.46;;;2.47;;